»·PEaware :: SWA622 KPHX-KSAN

SWA622 :: KPHX-KSAN

FLIGHT INFORMATION

Flight Status: Arrived
Operator:
Southwest Airlines
More flights by this operator :: More flights under this callsign
Pilot: Judson K. (15650)
Aircraft: BOEING 737-300
(B733)
More flights by this aircraft type
Origin: KPHX Phoenix Sky Harbor Intl
United States
Destination: KSAN San Diego Intl-Lindbergh
United States
More flights between these airports :: More routes between these airports
Route: +JUDTH6 MOHAK J2 HOGGZ LUCKI1
File this flight plan on PilotEdge
Remarks: PBN / A1B3B4B5D3D4 DOF / 171012 REG / N372SB EET / KZLA0022 OPR / SWA RMK / TCAS SIMBRIEF
Altitude:
(Current/Filed)
36,000ft
Speed:
(Current/Filed)
441kts
Departed: 12-Oct-17 03:40 PM
Arrived: 12-Oct-17 04:36 PM
Distance/Time
Traveled:
264nm/0:56
Distance/Time
To Go:
Arrived

Flight Plot

Page will automatically refresh every two minutes.

Flight plan parsing failed; only flown route is shown


Map Options




Map Legend


Flown Route
Filed Route
Departure Airport
Arrival Airport
Navaid (VOR, NDB)
Fix

Horizontal Profiles

Position Reports

Time Latitude Longitude Heading Altitude Ground
Speed
12-Oct-17 15:13 33.434068 -111.996235 285 1141ft 0kts
12-Oct-17 15:13 33.434068 -111.996235 285 1141ft 0kts
12-Oct-17 15:14 33.434068 -111.996235 285 1141ft 0kts
12-Oct-17 15:15 33.434068 -111.996235 285 1141ft 0kts
12-Oct-17 15:16 33.434068 -111.996235 285 1141ft 0kts
12-Oct-17 15:17 33.434068 -111.996235 285 1141ft 0kts
12-Oct-17 15:18 33.434068 -111.996235 285 1141ft 0kts
12-Oct-17 15:19 33.434068 -111.996235 285 1141ft 0kts
12-Oct-17 15:20 33.434068 -111.996235 285 1141ft 0kts
12-Oct-17 15:21 33.434068 -111.996235 285 1141ft 0kts
12-Oct-17 15:22 33.434068 -111.996235 285 1141ft 0kts
12-Oct-17 15:23 33.434068 -111.996235 285 1141ft 0kts
12-Oct-17 15:24 33.434068 -111.996235 285 1141ft 0kts
12-Oct-17 15:25 33.434068 -111.996235 285 1141ft 0kts
12-Oct-17 15:26 33.434068 -111.996235 285 1141ft 0kts
12-Oct-17 15:27 33.434068 -111.996235 285 1141ft 0kts
12-Oct-17 15:28 33.434068 -111.996235 285 1141ft 0kts
12-Oct-17 15:29 33.434068 -111.996235 285 1141ft 0kts
12-Oct-17 15:30 33.434068 -111.996235 285 1141ft 0kts
12-Oct-17 15:31 33.434068 -111.996235 285 1141ft 0kts
12-Oct-17 15:32 33.434068 -111.996235 285 1141ft 0kts
12-Oct-17 15:33 33.434068 -111.996235 285 1141ft 0kts
12-Oct-17 15:34 33.434068 -111.996235 285 1141ft 0kts
12-Oct-17 15:35 33.434068 -111.996235 285 1141ft 0kts
12-Oct-17 15:36 33.433974 -111.995835 285 1141ft 0kts
12-Oct-17 15:37 33.433876 -111.995415 285 1141ft 0kts
12-Oct-17 15:38 33.433876 -111.995415 285 1141ft 0kts
12-Oct-17 15:39 33.433841 -111.995613 234 1141ft 5kts
12-Oct-17 15:40 33.433514 -111.995750 182 1141ft 0kts
12-Oct-17 15:41 33.432748 -111.995618 166 1141ft 9kts
12-Oct-17 15:42 33.432015 -111.993609 141 1141ft 0kts
12-Oct-17 15:43 33.431052 -111.993701 259 1141ft 10kts
12-Oct-17 15:44 33.431158 -112.016147 270 1203ft 167kts
12-Oct-17 15:45 33.413106 -112.078382 239 3126ft 229kts
12-Oct-17 15:46 33.371437 -112.142473 200 5256ft 264kts
12-Oct-17 15:47 33.301091 -112.160831 212 6717ft 258kts
12-Oct-17 15:48 33.243249 -112.211006 231 9536ft 266kts
12-Oct-17 15:49 33.195359 -112.288853 232 11075ft 320kts
12-Oct-17 15:50 33.142055 -112.375359 232 13621ft 332kts
12-Oct-17 15:51 33.086465 -112.464814 233 15923ft 343kts
12-Oct-17 15:52 33.044432 -112.532316 233 17478ft 351kts
12-Oct-17 15:53 33.003296 -112.598010 233 18929ft 357kts
12-Oct-17 15:54 32.959619 -112.671007 244 20395ft 363kts
12-Oct-17 15:55 32.948578 -112.735181 259 21438ft 368kts
12-Oct-17 15:56 32.947849 -112.740991 259 21532ft 369kts
12-Oct-17 15:57 32.937689 -112.814859 258 22697ft 371kts
12-Oct-17 15:58 32.925315 -112.904636 258 23925ft 376kts
12-Oct-17 15:59 32.908849 -113.027829 259 25476ft 383kts
12-Oct-17 16:00 32.891734 -113.151242 258 26898ft 390kts
12-Oct-17 16:01 32.873906 -113.278699 258 28478ft 390kts
12-Oct-17 16:02 32.856993 -113.402689 259 30377ft 377kts
12-Oct-17 16:03 32.840034 -113.524558 258 31684ft 374kts
12-Oct-17 16:04 32.822825 -113.645180 258 32844ft 369kts
12-Oct-17 16:05 32.805699 -113.763449 258 33895ft 365kts
12-Oct-17 16:06 32.788715 -113.881315 258 34748ft 362kts
12-Oct-17 16:07 32.775072 -113.998521 266 35445ft 362kts
12-Oct-17 16:08 32.776547 -114.117329 269 35982ft 363kts
12-Oct-17 16:09 32.781394 -114.232341 269 35968ft 368kts
12-Oct-17 16:10 32.785933 -114.349161 268 35967ft 365kts
12-Oct-17 16:12 32.809193 -114.467665 283 35966ft 375kts
12-Oct-17 16:13 32.841861 -114.584093 282 35963ft 374kts
12-Oct-17 16:14 32.873319 -114.698561 282 35951ft 374kts
12-Oct-17 16:15 32.877390 -114.817787 264 35956ft 365kts
12-Oct-17 16:16 32.874354 -114.937228 265 35107ft 362kts
12-Oct-17 16:17 32.871648 -115.056305 265 32212ft 362kts
12-Oct-17 16:18 32.868877 -115.173325 265 29696ft 373kts
12-Oct-17 16:19 32.865811 -115.297936 265 27009ft 384kts
12-Oct-17 16:20 32.853824 -115.418491 259 25076ft 369kts
12-Oct-17 16:21 32.838139 -115.525249 257 23774ft 354kts
12-Oct-17 16:22 32.819573 -115.638508 257 22491ft 390kts
12-Oct-17 16:23 32.800391 -115.756104 257 20865ft 359kts
12-Oct-17 16:24 32.782811 -115.872584 262 20883ft 352kts
12-Oct-17 16:25 32.774364 -115.987577 262 18292ft 351kts
12-Oct-17 16:26 32.766003 -116.099510 263 16310ft 336kts
12-Oct-17 16:27 32.757513 -116.211400 263 14211ft 341kts
12-Oct-17 16:28 32.749204 -116.318469 263 12716ft 314kts
12-Oct-17 16:29 32.741668 -116.417892 263 11183ft 294kts
12-Oct-17 16:30 32.734651 -116.507169 262 9983ft 273kts
12-Oct-17 16:31 32.726220 -116.593315 261 9338ft 245kts
12-Oct-17 16:32 32.718286 -116.677008 262 8342ft 265kts
12-Oct-17 16:33 32.711730 -116.760027 263 6984ft 255kts
12-Oct-17 16:34 32.700465 -116.840297 249 5468ft 256kts
12-Oct-17 16:35 32.678033 -116.913800 250 4792ft 213kts
12-Oct-17 16:36 32.670155 -116.979775 278 4298ft 191kts
12-Oct-17 16:37 32.692771 -117.033785 294 3471ft 177kts
12-Oct-17 16:38 32.708421 -117.085573 288 2088ft 141kts
12-Oct-17 16:39 32.719191 -117.130672 285 1086ft 139kts
12-Oct-17 16:40 32.729756 -117.174216 284 162ft 135kts
12-Oct-17 16:41 32.735966 -117.199606 285 24ft 19kts
12-Oct-17 16:42 32.735649 -117.202141 197 24ft 0kts
12-Oct-17 16:43 32.735079 -117.200349 110 24ft 16kts
12-Oct-17 16:44 32.733828 -117.198129 204 24ft 0kts
12-Oct-17 16:45 32.733815 -117.198136 204 24ft 0kts
12-Oct-17 16:46 32.733815 -117.198136 204 24ft 0kts
12-Oct-17 16:47 32.733815 -117.198136 204 24ft 0kts
12-Oct-17 16:48 32.733815 -117.198136 204 24ft 0kts
12-Oct-17 16:49 32.733815 -117.198136 204 24ft 0kts
12-Oct-17 16:50 32.733815 -117.198136 204 24ft 0kts
12-Oct-17 16:51 32.733815 -117.198136 204 24ft 0kts
12-Oct-17 16:52 32.733815 -117.198136 204 24ft 0kts
12-Oct-17 16:53 32.733815 -117.198136 204 24ft 0kts
12-Oct-17 16:54 32.733815 -117.198136 204 24ft 0kts

Navigation Log

Ident Type
Flight plan parsing failed, navigation log unavailable